aviador You're here:

KTYS Decoded Metar

KNOXVILLE in TN, USA
Report Time2017-04-25 07:53:00
UTC Time2017-04-25 08:27:27
Flight Rules vfr VFR
Wind330° at 04 kt
W.Decomp.*RWY 05: 0.9 kt HW 3.9 kt LCW
W.Rank330° ranks 23
Current wind is below 330° avg. (5.5)
Visibility9999 m
Phenomena:N/A
Clouds:Scattered 080 Hf
Expected CloudBase > 800 ft AGL from Temp-Dew spread
CeilingNone
Temp13°C (ISA -0)
Dew Point11°C (88% RH)
AAT11.9°C
QNH1007 hPa
Density Alt1,371 ft
Elevation991 ft
Report Wrong Elevation
Raw Report
KTYS 250753Z 33004KT 10SM SCT080 13/11 A2973=

Extra information for KTYS:More info

Metar Taf Metar & Taf Last 4 Metars F.Rules Stats Wind Profile Meteogram Temp Stats Airport Information Weather charts Add Link Nearby VenuesMetar ALERT Operation Metar Decoded Social comments

AIRNAV info for KTYS